sensor_id;sensor_type;location;lat;lon;timestamp;P1;durP1;ratioP1;P2;durP2;ratioP2
75823;SDS011;64457;51.976;9.834;2023-08-31T00:00:24;17.37;;;9.90;;
75823;SDS011;64457;51.976;9.834;2023-08-31T00:02:52;20.33;;;10.37;;
75823;SDS011;64457;51.976;9.834;2023-08-31T00:05:21;18.67;;;11.33;;
75823;SDS011;64457;51.976;9.834;2023-08-31T00:07:50;18.53;;;9.90;;
75823;SDS011;64457;51.976;9.834;2023-08-31T00:10:17;17.00;;;10.50;;
75823;SDS011;64457;51.976;9.834;2023-08-31T00:12:45;18.60;;;10.63;;
75823;SDS011;64457;51.976;9.834;2023-08-31T00:15:14;18.80;;;10.70;;
75823;SDS011;64457;51.976;9.834;2023-08-31T00:17:42;18.80;;;10.30;;
75823;SDS011;64457;51.976;9.834;2023-08-31T00:20:10;19.93;;;10.40;;
75823;SDS011;64457;51.976;9.834;2023-08-31T00:22:39;20.93;;;9.33;;
75823;SDS011;64457;51.976;9.834;2023-08-31T00:25:07;16.93;;;10.20;;
75823;SDS011;64457;51.976;9.834;2023-08-31T00:27:35;19.70;;;10.80;;
75823;SDS011;64457;51.976;9.834;2023-08-31T00:30:04;19.13;;;10.13;;
75823;SDS011;64457;51.976;9.834;2023-08-31T00:32:34;20.17;;;10.20;;
75823;SDS011;64457;51.976;9.834;2023-08-31T00:35:02;22.60;;;11.30;;
75823;SDS011;64457;51.976;9.834;2023-08-31T00:37:30;23.20;;;9.77;;
75823;SDS011;64457;51.976;9.834;2023-08-31T00:40:00;19.77;;;10.77;;
75823;SDS011;64457;51.976;9.834;2023-08-31T00:42:29;20.77;;;10.87;;
75823;SDS011;64457;51.976;9.834;2023-08-31T00:44:57;22.30;;;11.73;;
75823;SDS011;64457;51.976;9.834;2023-08-31T00:47:25;20.40;;;11.60;;
75823;SDS011;64457;51.976;9.834;2023-08-31T00:49:53;21.70;;;11.13;;
75823;SDS011;64457;51.976;9.834;2023-08-31T00:52:20;23.90;;;11.60;;
75823;SDS011;64457;51.976;9.834;2023-08-31T00:54:48;22.90;;;12.50;;
75823;SDS011;64457;51.976;9.834;2023-08-31T00:57:20;27.33;;;12.50;;
75823;SDS011;64457;51.976;9.834;2023-08-31T00:59:47;23.70;;;12.20;;
75823;SDS011;64457;51.976;9.834;2023-08-31T01:02:16;23.00;;;12.93;;
75823;SDS011;64457;51.976;9.834;2023-08-31T01:04:51;27.37;;;12.97;;
75823;SDS011;64457;51.976;9.834;2023-08-31T01:07:31;24.70;;;12.93;;
75823;SDS011;64457;51.976;9.834;2023-08-31T01:10:11;22.23;;;12.90;;
75823;SDS011;64457;51.976;9.834;2023-08-31T01:12:50;20.93;;;12.30;;
75823;SDS011;64457;51.976;9.834;2023-08-31T01:15:20;26.47;;;13.10;;
75823;SDS011;64457;51.976;9.834;2023-08-31T01:17:50;27.00;;;12.97;;
75823;SDS011;64457;51.976;9.834;2023-08-31T01:20:24;26.07;;;13.83;;
75823;SDS011;64457;51.976;9.834;2023-08-31T01:23:00;26.30;;;13.63;;
75823;SDS011;64457;51.976;9.834;2023-08-31T01:25:34;26.73;;;14.17;;
75823;SDS011;64457;51.976;9.834;2023-08-31T01:28:03;26.83;;;14.00;;
75823;SDS011;64457;51.976;9.834;2023-08-31T01:30:34;26.50;;;14.90;;
75823;SDS011;64457;51.976;9.834;2023-08-31T01:33:02;28.53;;;14.43;;
75823;SDS011;64457;51.976;9.834;2023-08-31T01:35:30;29.40;;;15.57;;
75823;SDS011;64457;51.976;9.834;2023-08-31T01:38:04;27.20;;;14.93;;
75823;SDS011;64457;51.976;9.834;2023-08-31T01:40:36;26.57;;;14.93;;
75823;SDS011;64457;51.976;9.834;2023-08-31T01:43:07;26.23;;;14.80;;
75823;SDS011;64457;51.976;9.834;2023-08-31T01:45:37;28.77;;;14.90;;
75823;SDS011;64457;51.976;9.834;2023-08-31T01:48:06;29.07;;;14.20;;
75823;SDS011;64457;51.976;9.834;2023-08-31T01:50:34;28.13;;;13.70;;
75823;SDS011;64457;51.976;9.834;2023-08-31T01:53:02;33.67;;;15.10;;
75823;SDS011;64457;51.976;9.834;2023-08-31T01:55:41;26.90;;;14.57;;
75823;SDS011;64457;51.976;9.834;2023-08-31T01:58:08;23.17;;;13.47;;
75823;SDS011;64457;51.976;9.834;2023-08-31T02:00:36;27.67;;;14.70;;
75823;SDS011;64457;51.976;9.834;2023-08-31T02:03:04;25.00;;;13.77;;
75823;SDS011;64457;51.976;9.834;2023-08-31T02:05:33;24.90;;;14.00;;
75823;SDS011;64457;51.976;9.834;2023-08-31T02:08:00;26.90;;;13.63;;
75823;SDS011;64457;51.976;9.834;2023-08-31T02:10:29;24.00;;;12.13;;
75823;SDS011;64457;51.976;9.834;2023-08-31T02:12:59;24.23;;;12.60;;
75823;SDS011;64457;51.976;9.834;2023-08-31T02:15:26;23.03;;;12.63;;
75823;SDS011;64457;51.976;9.834;2023-08-31T02:17:55;22.73;;;13.60;;
75823;SDS011;64457;51.976;9.834;2023-08-31T02:20:22;27.57;;;13.67;;
75823;SDS011;64457;51.976;9.834;2023-08-31T02:22:52;30.17;;;13.50;;
75823;SDS011;64457;51.976;9.834;2023-08-31T02:25:21;34.83;;;12.33;;
75823;SDS011;64457;51.976;9.834;2023-08-31T02:27:48;25.07;;;13.00;;
75823;SDS011;64457;51.976;9.834;2023-08-31T02:30:17;24.10;;;13.07;;
75823;SDS011;64457;51.976;9.834;2023-08-31T02:32:45;24.10;;;12.67;;
75823;SDS011;64457;51.976;9.834;2023-08-31T02:35:18;25.03;;;12.60;;
75823;SDS011;64457;51.976;9.834;2023-08-31T02:37:45;24.87;;;13.40;;
75823;SDS011;64457;51.976;9.834;2023-08-31T02:40:14;28.17;;;13.57;;
75823;SDS011;64457;51.976;9.834;2023-08-31T02:42:42;24.97;;;13.67;;
75823;SDS011;64457;51.976;9.834;2023-08-31T02:45:11;27.40;;;12.90;;
75823;SDS011;64457;51.976;9.834;2023-08-31T02:47:40;27.10;;;14.13;;
75823;SDS011;64457;51.976;9.834;2023-08-31T02:50:08;25.40;;;13.10;;
75823;SDS011;64457;51.976;9.834;2023-08-31T02:52:35;37.70;;;14.53;;
75823;SDS011;64457;51.976;9.834;2023-08-31T02:55:03;26.53;;;13.90;;
75823;SDS011;64457;51.976;9.834;2023-08-31T02:57:32;23.17;;;13.27;;
75823;SDS011;64457;51.976;9.834;2023-08-31T03:00:00;22.97;;;13.50;;
75823;SDS011;64457;51.976;9.834;2023-08-31T03:02:29;27.13;;;13.97;;
75823;SDS011;64457;51.976;9.834;2023-08-31T03:04:59;25.57;;;13.23;;
75823;SDS011;64457;51.976;9.834;2023-08-31T03:07:28;28.03;;;13.90;;
75823;SDS011;64457;51.976;9.834;2023-08-31T03:09:57;23.80;;;14.20;;
75823;SDS011;64457;51.976;9.834;2023-08-31T03:12:25;27.63;;;14.50;;
75823;SDS011;64457;51.976;9.834;2023-08-31T03:14:53;31.23;;;14.90;;
75823;SDS011;64457;51.976;9.834;2023-08-31T03:17:20;25.93;;;14.97;;
75823;SDS011;64457;51.976;9.834;2023-08-31T03:19:48;30.13;;;15.20;;
75823;SDS011;64457;51.976;9.834;2023-08-31T03:22:17;27.63;;;16.10;;
75823;SDS011;64457;51.976;9.834;2023-08-31T03:24:45;29.00;;;15.87;;
75823;SDS011;64457;51.976;9.834;2023-08-31T03:27:12;34.70;;;16.50;;
75823;SDS011;64457;51.976;9.834;2023-08-31T03:29:42;41.10;;;15.17;;
75823;SDS011;64457;51.976;9.834;2023-08-31T03:32:10;30.40;;;16.03;;
75823;SDS011;64457;51.976;9.834;2023-08-31T03:34:39;29.43;;;14.90;;
75823;SDS011;64457;51.976;9.834;2023-08-31T03:37:07;30.23;;;15.60;;
75823;SDS011;64457;51.976;9.834;2023-08-31T03:39:36;26.17;;;15.00;;
75823;SDS011;64457;51.976;9.834;2023-08-31T03:42:05;32.03;;;14.73;;
75823;SDS011;64457;51.976;9.834;2023-08-31T03:44:34;32.50;;;15.70;;
75823;SDS011;64457;51.976;9.834;2023-08-31T03:47:02;33.70;;;15.93;;
75823;SDS011;64457;51.976;9.834;2023-08-31T03:49:31;30.83;;;15.13;;
75823;SDS011;64457;51.976;9.834;2023-08-31T03:52:00;29.83;;;15.80;;
75823;SDS011;64457;51.976;9.834;2023-08-31T03:54:27;26.93;;;15.07;;
75823;SDS011;64457;51.976;9.834;2023-08-31T03:56:57;26.60;;;14.70;;
75823;SDS011;64457;51.976;9.834;2023-08-31T03:59:25;25.30;;;15.20;;
75823;SDS011;64457;51.976;9.834;2023-08-31T04:01:53;25.73;;;14.93;;
75823;SDS011;64457;51.976;9.834;2023-08-31T04:04:20;24.40;;;14.83;;
75823;SDS011;64457;51.976;9.834;2023-08-31T04:06:48;25.63;;;14.33;;
75823;SDS011;64457;51.976;9.834;2023-08-31T04:09:16;23.67;;;14.07;;
75823;SDS011;64457;51.976;9.834;2023-08-31T04:11:44;30.20;;;15.20;;
75823;SDS011;64457;51.976;9.834;2023-08-31T04:14:13;28.53;;;15.63;;
75823;SDS011;64457;51.976;9.834;2023-08-31T04:16:40;32.30;;;15.00;;
75823;SDS011;64457;51.976;9.834;2023-08-31T04:19:08;26.07;;;14.70;;
75823;SDS011;64457;51.976;9.834;2023-08-31T04:21:36;32.17;;;16.90;;
75823;SDS011;64457;51.976;9.834;2023-08-31T04:24:04;27.87;;;15.67;;
75823;SDS011;64457;51.976;9.834;2023-08-31T04:26:32;29.87;;;14.60;;
75823;SDS011;64457;51.976;9.834;2023-08-31T04:29:00;29.10;;;16.10;;
75823;SDS011;64457;51.976;9.834;2023-08-31T04:31:32;32.50;;;16.80;;
75823;SDS011;64457;51.976;9.834;2023-08-31T04:34:01;26.33;;;14.60;;
75823;SDS011;64457;51.976;9.834;2023-08-31T04:36:28;30.17;;;16.00;;
75823;SDS011;64457;51.976;9.834;2023-08-31T04:38:56;29.27;;;15.63;;
75823;SDS011;64457;51.976;9.834;2023-08-31T04:41:24;31.67;;;16.17;;
75823;SDS011;64457;51.976;9.834;2023-08-31T04:43:52;30.60;;;15.10;;
75823;SDS011;64457;51.976;9.834;2023-08-31T04:46:21;31.40;;;15.70;;
75823;SDS011;64457;51.976;9.834;2023-08-31T04:48:50;26.57;;;15.37;;
75823;SDS011;64457;51.976;9.834;2023-08-31T04:51:28;25.67;;;14.13;;
75823;SDS011;64457;51.976;9.834;2023-08-31T04:53:57;28.70;;;13.60;;
75823;SDS011;64457;51.976;9.834;2023-08-31T04:56:28;27.30;;;13.20;;
75823;SDS011;64457;51.976;9.834;2023-08-31T04:58:59;24.50;;;12.80;;
75823;SDS011;64457;51.976;9.834;2023-08-31T05:01:28;21.63;;;13.27;;
75823;SDS011;64457;51.976;9.834;2023-08-31T05:03:57;20.77;;;12.07;;
75823;SDS011;64457;51.976;9.834;2023-08-31T05:06:25;30.60;;;13.73;;
75823;SDS011;64457;51.976;9.834;2023-08-31T05:08:53;21.30;;;11.20;;
75823;SDS011;64457;51.976;9.834;2023-08-31T05:11:22;25.10;;;12.77;;
75823;SDS011;64457;51.976;9.834;2023-08-31T05:13:50;24.23;;;11.23;;
75823;SDS011;64457;51.976;9.834;2023-08-31T05:16:18;18.50;;;10.10;;
75823;SDS011;64457;51.976;9.834;2023-08-31T05:18:45;25.03;;;10.23;;
75823;SDS011;64457;51.976;9.834;2023-08-31T05:21:14;16.77;;;9.67;;
75823;SDS011;64457;51.976;9.834;2023-08-31T05:23:44;20.30;;;10.63;;
75823;SDS011;64457;51.976;9.834;2023-08-31T05:26:11;22.93;;;10.90;;
75823;SDS011;64457;51.976;9.834;2023-08-31T05:28:40;23.57;;;11.03;;
75823;SDS011;64457;51.976;9.834;2023-08-31T05:31:08;22.10;;;10.80;;
75823;SDS011;64457;51.976;9.834;2023-08-31T05:33:35;18.33;;;9.67;;
75823;SDS011;64457;51.976;9.834;2023-08-31T05:36:03;19.33;;;10.43;;
75823;SDS011;64457;51.976;9.834;2023-08-31T05:38:32;20.27;;;10.63;;
75823;SDS011;64457;51.976;9.834;2023-08-31T05:41:03;20.40;;;10.37;;
75823;SDS011;64457;51.976;9.834;2023-08-31T05:43:32;22.90;;;10.20;;
75823;SDS011;64457;51.976;9.834;2023-08-31T05:46:02;19.10;;;9.63;;
75823;SDS011;64457;51.976;9.834;2023-08-31T05:48:29;19.53;;;9.57;;
75823;SDS011;64457;51.976;9.834;2023-08-31T05:50:58;19.20;;;8.37;;
75823;SDS011;64457;51.976;9.834;2023-08-31T05:53:27;17.17;;;8.90;;
75823;SDS011;64457;51.976;9.834;2023-08-31T05:55:56;16.30;;;7.60;;
75823;SDS011;64457;51.976;9.834;2023-08-31T05:58:29;17.70;;;7.50;;
75823;SDS011;64457;51.976;9.834;2023-08-31T06:00:59;16.17;;;7.70;;
75823;SDS011;64457;51.976;9.834;2023-08-31T06:03:28;16.90;;;9.17;;
75823;SDS011;64457;51.976;9.834;2023-08-31T06:05:56;14.90;;;6.87;;
75823;SDS011;64457;51.976;9.834;2023-08-31T06:08:25;11.20;;;6.40;;
75823;SDS011;64457;51.976;9.834;2023-08-31T06:10:56;12.80;;;6.40;;
75823;SDS011;64457;51.976;9.834;2023-08-31T06:13:23;14.00;;;7.10;;
75823;SDS011;64457;51.976;9.834;2023-08-31T06:15:51;14.23;;;6.10;;
75823;SDS011;64457;51.976;9.834;2023-08-31T06:18:20;11.80;;;6.30;;
75823;SDS011;64457;51.976;9.834;2023-08-31T06:20:49;14.40;;;7.30;;
75823;SDS011;64457;51.976;9.834;2023-08-31T06:23:17;10.57;;;5.83;;
75823;SDS011;64457;51.976;9.834;2023-08-31T06:25:45;11.70;;;5.50;;
75823;SDS011;64457;51.976;9.834;2023-08-31T06:28:14;15.00;;;6.60;;
75823;SDS011;64457;51.976;9.834;2023-08-31T06:30:41;18.53;;;6.80;;
75823;SDS011;64457;51.976;9.834;2023-08-31T06:33:11;11.97;;;5.50;;
75823;SDS011;64457;51.976;9.834;2023-08-31T06:35:39;11.63;;;5.57;;
75823;SDS011;64457;51.976;9.834;2023-08-31T06:38:07;13.90;;;5.87;;
75823;SDS011;64457;51.976;9.834;2023-08-31T06:40:35;10.03;;;5.37;;
75823;SDS011;64457;51.976;9.834;2023-08-31T06:43:03;12.27;;;5.70;;
75823;SDS011;64457;51.976;9.834;2023-08-31T06:45:33;11.90;;;5.90;;
75823;SDS011;64457;51.976;9.834;2023-08-31T06:48:01;13.50;;;6.60;;
75823;SDS011;64457;51.976;9.834;2023-08-31T06:50:30;13.40;;;5.90;;
75823;SDS011;64457;51.976;9.834;2023-08-31T06:53:00;13.90;;;6.53;;
75823;SDS011;64457;51.976;9.834;2023-08-31T06:55:28;12.63;;;6.10;;
75823;SDS011;64457;51.976;9.834;2023-08-31T06:57:57;13.77;;;6.30;;
75823;SDS011;64457;51.976;9.834;2023-08-31T07:00:24;11.80;;;5.40;;
75823;SDS011;64457;51.976;9.834;2023-08-31T07:02:54;10.10;;;5.70;;
75823;SDS011;64457;51.976;9.834;2023-08-31T07:05:24;11.00;;;6.40;;
75823;SDS011;64457;51.976;9.834;2023-08-31T07:07:53;10.70;;;5.87;;
75823;SDS011;64457;51.976;9.834;2023-08-31T07:10:21;12.70;;;5.10;;
75823;SDS011;64457;51.976;9.834;2023-08-31T07:12:49;9.73;;;3.97;;
75823;SDS011;64457;51.976;9.834;2023-08-31T07:15:16;8.17;;;3.40;;
75823;SDS011;64457;51.976;9.834;2023-08-31T07:17:44;7.80;;;3.30;;
75823;SDS011;64457;51.976;9.834;2023-08-31T07:20:14;7.43;;;2.90;;
75823;SDS011;64457;51.976;9.834;2023-08-31T07:22:43;9.23;;;3.60;;
75823;SDS011;64457;51.976;9.834;2023-08-31T07:25:10;7.47;;;3.00;;
75823;SDS011;64457;51.976;9.834;2023-08-31T07:27:38;10.63;;;3.43;;
75823;SDS011;64457;51.976;9.834;2023-08-31T07:30:07;9.10;;;2.87;;
75823;SDS011;64457;51.976;9.834;2023-08-31T07:32:35;7.73;;;3.30;;
75823;SDS011;64457;51.976;9.834;2023-08-31T07:35:03;6.80;;;2.77;;
75823;SDS011;64457;51.976;9.834;2023-08-31T07:37:33;7.00;;;3.00;;
75823;SDS011;64457;51.976;9.834;2023-08-31T07:40:03;7.10;;;3.43;;
75823;SDS011;64457;51.976;9.834;2023-08-31T07:42:35;7.30;;;3.40;;
75823;SDS011;64457;51.976;9.834;2023-08-31T07:45:02;11.40;;;3.23;;
75823;SDS011;64457;51.976;9.834;2023-08-31T07:47:32;9.03;;;3.40;;
75823;SDS011;64457;51.976;9.834;2023-08-31T07:50:00;10.40;;;3.33;;
75823;SDS011;64457;51.976;9.834;2023-08-31T07:52:27;8.57;;;2.60;;
75823;SDS011;64457;51.976;9.834;2023-08-31T07:54:57;9.70;;;2.60;;
75823;SDS011;64457;51.976;9.834;2023-08-31T07:57:24;7.00;;;3.00;;
75823;SDS011;64457;51.976;9.834;2023-08-31T07:59:52;10.00;;;3.07;;
75823;SDS011;64457;51.976;9.834;2023-08-31T08:02:20;6.93;;;2.70;;
75823;SDS011;64457;51.976;9.834;2023-08-31T08:04:48;6.50;;;2.50;;
75823;SDS011;64457;51.976;9.834;2023-08-31T08:07:15;7.23;;;2.00;;
75823;SDS011;64457;51.976;9.834;2023-08-31T08:09:43;6.47;;;2.30;;
75823;SDS011;64457;51.976;9.834;2023-08-31T08:12:12;5.50;;;2.03;;
75823;SDS011;64457;51.976;9.834;2023-08-31T08:14:40;6.87;;;2.00;;
75823;SDS011;64457;51.976;9.834;2023-08-31T08:17:07;6.10;;;2.40;;
75823;SDS011;64457;51.976;9.834;2023-08-31T08:19:35;5.90;;;1.90;;
75823;SDS011;64457;51.976;9.834;2023-08-31T08:22:05;6.27;;;2.20;;
75823;SDS011;64457;51.976;9.834;2023-08-31T08:24:33;6.47;;;1.83;;
75823;SDS011;64457;51.976;9.834;2023-08-31T08:27:01;9.83;;;2.47;;
75823;SDS011;64457;51.976;9.834;2023-08-31T08:29:30;7.40;;;2.47;;
75823;SDS011;64457;51.976;9.834;2023-08-31T08:31:58;6.33;;;2.60;;
75823;SDS011;64457;51.976;9.834;2023-08-31T08:34:25;9.10;;;2.90;;
75823;SDS011;64457;51.976;9.834;2023-08-31T08:36:54;6.20;;;2.50;;
75823;SDS011;64457;51.976;9.834;2023-08-31T08:39:22;7.13;;;2.63;;
75823;SDS011;64457;51.976;9.834;2023-08-31T08:41:49;8.90;;;2.80;;
75823;SDS011;64457;51.976;9.834;2023-08-31T08:44:18;6.50;;;2.47;;
75823;SDS011;64457;51.976;9.834;2023-08-31T08:46:50;10.57;;;3.07;;
75823;SDS011;64457;51.976;9.834;2023-08-31T08:49:19;6.37;;;2.57;;
75823;SDS011;64457;51.976;9.834;2023-08-31T08:51:48;7.80;;;2.63;;
75823;SDS011;64457;51.976;9.834;2023-08-31T08:54:17;6.33;;;2.27;;
75823;SDS011;64457;51.976;9.834;2023-08-31T08:56:45;10.33;;;2.50;;
75823;SDS011;64457;51.976;9.834;2023-08-31T08:59:13;7.17;;;2.20;;
75823;SDS011;64457;51.976;9.834;2023-08-31T09:01:41;7.77;;;2.33;;
75823;SDS011;64457;51.976;9.834;2023-08-31T09:04:10;6.50;;;2.07;;
75823;SDS011;64457;51.976;9.834;2023-08-31T09:06:38;6.27;;;1.73;;
75823;SDS011;64457;51.976;9.834;2023-08-31T09:09:07;7.43;;;1.90;;
75823;SDS011;64457;51.976;9.834;2023-08-31T09:11:35;4.80;;;1.40;;
75823;SDS011;64457;51.976;9.834;2023-08-31T09:14:13;7.63;;;2.00;;
75823;SDS011;64457;51.976;9.834;2023-08-31T09:16:44;6.40;;;1.50;;
75823;SDS011;64457;51.976;9.834;2023-08-31T09:19:20;5.83;;;1.80;;
75823;SDS011;64457;51.976;9.834;2023-08-31T09:21:55;7.23;;;1.80;;
75823;SDS011;64457;51.976;9.834;2023-08-31T09:24:24;5.03;;;1.70;;
75823;SDS011;64457;51.976;9.834;2023-08-31T09:26:53;6.63;;;1.70;;
75823;SDS011;64457;51.976;9.834;2023-08-31T09:29:23;6.23;;;1.73;;
75823;SDS011;64457;51.976;9.834;2023-08-31T09:31:50;13.53;;;2.27;;
75823;SDS011;64457;51.976;9.834;2023-08-31T09:34:19;10.80;;;2.77;;
75823;SDS011;64457;51.976;9.834;2023-08-31T09:36:49;6.60;;;2.13;;
75823;SDS011;64457;51.976;9.834;2023-08-31T09:39:17;7.87;;;2.50;;
75823;SDS011;64457;51.976;9.834;2023-08-31T09:41:54;9.43;;;2.40;;
75823;SDS011;64457;51.976;9.834;2023-08-31T09:44:22;7.20;;;2.70;;
75823;SDS011;64457;51.976;9.834;2023-08-31T09:46:49;6.50;;;2.47;;
75823;SDS011;64457;51.976;9.834;2023-08-31T09:49:21;8.93;;;2.63;;
75823;SDS011;64457;51.976;9.834;2023-08-31T09:51:49;7.07;;;2.70;;
75823;SDS011;64457;51.976;9.834;2023-08-31T09:54:20;11.23;;;2.87;;
75823;SDS011;64457;51.976;9.834;2023-08-31T09:56:49;7.47;;;2.00;;
75823;SDS011;64457;51.976;9.834;2023-08-31T09:59:17;8.60;;;2.23;;
75823;SDS011;64457;51.976;9.834;2023-08-31T10:01:45;10.77;;;2.63;;
75823;SDS011;64457;51.976;9.834;2023-08-31T10:04:14;7.77;;;2.30;;
75823;SDS011;64457;51.976;9.834;2023-08-31T10:06:45;8.40;;;2.70;;
75823;SDS011;64457;51.976;9.834;2023-08-31T10:09:13;10.00;;;2.87;;
75823;SDS011;64457;51.976;9.834;2023-08-31T10:11:41;8.10;;;2.37;;
75823;SDS011;64457;51.976;9.834;2023-08-31T10:14:10;7.23;;;2.30;;
75823;SDS011;64457;51.976;9.834;2023-08-31T10:16:39;9.97;;;1.90;;
75823;SDS011;64457;51.976;9.834;2023-08-31T10:19:06;7.13;;;1.77;;
75823;SDS011;64457;51.976;9.834;2023-08-31T10:21:34;9.57;;;2.17;;
75823;SDS011;64457;51.976;9.834;2023-08-31T10:24:06;9.00;;;2.10;;
75823;SDS011;64457;51.976;9.834;2023-08-31T10:26:34;7.13;;;1.80;;
75823;SDS011;64457;51.976;9.834;2023-08-31T10:29:02;7.87;;;2.13;;
75823;SDS011;64457;51.976;9.834;2023-08-31T10:31:31;6.07;;;1.73;;
75823;SDS011;64457;51.976;9.834;2023-08-31T10:34:01;5.90;;;1.87;;
75823;SDS011;64457;51.976;9.834;2023-08-31T10:36:37;6.33;;;2.23;;
75823;SDS011;64457;51.976;9.834;2023-08-31T10:39:11;5.53;;;1.97;;
75823;SDS011;64457;51.976;9.834;2023-08-31T10:41:41;8.83;;;2.20;;
75823;SDS011;64457;51.976;9.834;2023-08-31T10:44:19;7.70;;;2.00;;
75823;SDS011;64457;51.976;9.834;2023-08-31T10:46:48;6.60;;;2.10;;
75823;SDS011;64457;51.976;9.834;2023-08-31T10:49:18;7.30;;;2.40;;
75823;SDS011;64457;51.976;9.834;2023-08-31T10:51:48;8.47;;;2.57;;
75823;SDS011;64457;51.976;9.834;2023-08-31T10:54:22;7.37;;;2.50;;
75823;SDS011;64457;51.976;9.834;2023-08-31T10:56:54;7.93;;;2.67;;
75823;SDS011;64457;51.976;9.834;2023-08-31T10:59:41;7.90;;;3.00;;
75823;SDS011;64457;51.976;9.834;2023-08-31T11:02:35;9.50;;;3.20;;
75823;SDS011;64457;51.976;9.834;2023-08-31T11:05:06;12.83;;;3.07;;
75823;SDS011;64457;51.976;9.834;2023-08-31T11:07:36;9.10;;;3.13;;
75823;SDS011;64457;51.976;9.834;2023-08-31T11:10:11;9.80;;;3.00;;
75823;SDS011;64457;51.976;9.834;2023-08-31T11:12:45;9.67;;;3.20;;
75823;SDS011;64457;51.976;9.834;2023-08-31T11:15:14;7.37;;;3.10;;
75823;SDS011;64457;51.976;9.834;2023-08-31T11:17:43;7.70;;;2.97;;
75823;SDS011;64457;51.976;9.834;2023-08-31T11:20:15;7.50;;;3.40;;
75823;SDS011;64457;51.976;9.834;2023-08-31T11:22:44;8.70;;;3.10;;
75823;SDS011;64457;51.976;9.834;2023-08-31T11:25:13;8.23;;;3.33;;
75823;SDS011;64457;51.976;9.834;2023-08-31T11:27:41;10.77;;;2.90;;
75823;SDS011;64457;51.976;9.834;2023-08-31T11:30:19;11.23;;;2.80;;
75823;SDS011;64457;51.976;9.834;2023-08-31T11:32:47;6.87;;;2.70;;
75823;SDS011;64457;51.976;9.834;2023-08-31T11:35:18;9.23;;;3.53;;
75823;SDS011;64457;51.976;9.834;2023-08-31T11:37:50;10.23;;;3.20;;
75823;SDS011;64457;51.976;9.834;2023-08-31T11:40:21;7.63;;;3.20;;
75823;SDS011;64457;51.976;9.834;2023-08-31T11:42:48;10.00;;;3.33;;
75823;SDS011;64457;51.976;9.834;2023-08-31T11:45:16;9.73;;;3.33;;
75823;SDS011;64457;51.976;9.834;2023-08-31T11:47:44;8.40;;;3.00;;
75823;SDS011;64457;51.976;9.834;2023-08-31T11:50:12;7.97;;;3.27;;
75823;SDS011;64457;51.976;9.834;2023-08-31T11:52:41;8.07;;;3.40;;
75823;SDS011;64457;51.976;9.834;2023-08-31T11:55:11;7.53;;;3.10;;
75823;SDS011;64457;51.976;9.834;2023-08-31T11:57:49;8.10;;;2.80;;
75823;SDS011;64457;51.976;9.834;2023-08-31T12:00:17;7.83;;;3.40;;
75823;SDS011;64457;51.976;9.834;2023-08-31T12:02:45;8.80;;;3.87;;
75823;SDS011;64457;51.976;9.834;2023-08-31T12:05:22;7.13;;;3.30;;
75823;SDS011;64457;51.976;9.834;2023-08-31T12:07:49;8.63;;;4.17;;
75823;SDS011;64457;51.976;9.834;2023-08-31T12:10:20;7.50;;;3.33;;
75823;SDS011;64457;51.976;9.834;2023-08-31T12:12:52;8.27;;;3.93;;
75823;SDS011;64457;51.976;9.834;2023-08-31T12:15:21;7.70;;;3.60;;
75823;SDS011;64457;51.976;9.834;2023-08-31T12:17:49;8.50;;;3.60;;
75823;SDS011;64457;51.976;9.834;2023-08-31T12:20:24;8.13;;;3.73;;
75823;SDS011;64457;51.976;9.834;2023-08-31T12:22:53;8.50;;;3.83;;
75823;SDS011;64457;51.976;9.834;2023-08-31T12:25:21;9.87;;;3.90;;
75823;SDS011;64457;51.976;9.834;2023-08-31T12:27:48;9.20;;;3.90;;
75823;SDS011;64457;51.976;9.834;2023-08-31T12:30:18;9.23;;;4.23;;
75823;SDS011;64457;51.976;9.834;2023-08-31T12:32:46;14.60;;;5.07;;
75823;SDS011;64457;51.976;9.834;2023-08-31T12:35:13;10.20;;;3.03;;
75823;SDS011;64457;51.976;9.834;2023-08-31T12:37:41;8.00;;;2.33;;
75823;SDS011;64457;51.976;9.834;2023-08-31T12:40:09;10.47;;;2.00;;
75823;SDS011;64457;51.976;9.834;2023-08-31T12:42:39;8.53;;;1.80;;
75823;SDS011;64457;51.976;9.834;2023-08-31T12:45:07;6.70;;;2.50;;
75823;SDS011;64457;51.976;9.834;2023-08-31T12:47:37;7.67;;;2.60;;
75823;SDS011;64457;51.976;9.834;2023-08-31T12:50:04;7.10;;;2.37;;
75823;SDS011;64457;51.976;9.834;2023-08-31T12:52:33;7.43;;;2.90;;
75823;SDS011;64457;51.976;9.834;2023-08-31T12:55:01;6.30;;;1.73;;
75823;SDS011;64457;51.976;9.834;2023-08-31T12:57:29;8.87;;;2.10;;
75823;SDS011;64457;51.976;9.834;2023-08-31T12:59:57;6.77;;;1.40;;
75823;SDS011;64457;51.976;9.834;2023-08-31T13:02:25;5.00;;;1.30;;
75823;SDS011;64457;51.976;9.834;2023-08-31T13:04:53;5.30;;;1.40;;
75823;SDS011;64457;51.976;9.834;2023-08-31T13:07:21;7.17;;;1.67;;
75823;SDS011;64457;51.976;9.834;2023-08-31T13:09:49;6.97;;;1.87;;
75823;SDS011;64457;51.976;9.834;2023-08-31T13:12:16;5.47;;;1.47;;
75823;SDS011;64457;51.976;9.834;2023-08-31T13:14:44;6.00;;;1.50;;
75823;SDS011;64457;51.976;9.834;2023-08-31T13:17:12;6.40;;;1.70;;
75823;SDS011;64457;51.976;9.834;2023-08-31T13:19:40;6.60;;;2.10;;
75823;SDS011;64457;51.976;9.834;2023-08-31T13:22:09;6.10;;;2.00;;
75823;SDS011;64457;51.976;9.834;2023-08-31T13:24:40;8.63;;;2.20;;
75823;SDS011;64457;51.976;9.834;2023-08-31T13:27:08;8.47;;;2.27;;
75823;SDS011;64457;51.976;9.834;2023-08-31T13:29:36;14.53;;;2.40;;
75823;SDS011;64457;51.976;9.834;2023-08-31T13:32:04;11.43;;;3.20;;
75823;SDS011;64457;51.976;9.834;2023-08-31T13:34:32;6.70;;;2.70;;
75823;SDS011;64457;51.976;9.834;2023-08-31T13:36:59;7.33;;;2.80;;
75823;SDS011;64457;51.976;9.834;2023-08-31T13:39:29;6.83;;;3.10;;
75823;SDS011;64457;51.976;9.834;2023-08-31T13:41:57;10.07;;;2.63;;
75823;SDS011;64457;51.976;9.834;2023-08-31T13:44:27;8.97;;;2.90;;
75823;SDS011;64457;51.976;9.834;2023-08-31T13:46:54;6.80;;;2.80;;
75823;SDS011;64457;51.976;9.834;2023-08-31T13:49:22;8.90;;;3.90;;
75823;SDS011;64457;51.976;9.834;2023-08-31T13:51:49;10.53;;;3.33;;
75823;SDS011;64457;51.976;9.834;2023-08-31T13:54:17;8.37;;;2.90;;
75823;SDS011;64457;51.976;9.834;2023-08-31T13:56:47;9.27;;;3.20;;
75823;SDS011;64457;51.976;9.834;2023-08-31T13:59:15;11.10;;;3.13;;
75823;SDS011;64457;51.976;9.834;2023-08-31T14:01:43;8.13;;;2.40;;
75823;SDS011;64457;51.976;9.834;2023-08-31T14:04:10;7.13;;;3.07;;
75823;SDS011;64457;51.976;9.834;2023-08-31T14:06:38;11.00;;;3.17;;
75823;SDS011;64457;51.976;9.834;2023-08-31T14:09:06;9.80;;;3.40;;
75823;SDS011;64457;51.976;9.834;2023-08-31T14:11:34;8.10;;;3.40;;
75823;SDS011;64457;51.976;9.834;2023-08-31T14:14:04;6.50;;;2.77;;
75823;SDS011;64457;51.976;9.834;2023-08-31T14:16:34;8.23;;;2.67;;
75823;SDS011;64457;51.976;9.834;2023-08-31T14:19:02;5.87;;;2.03;;
75823;SDS011;64457;51.976;9.834;2023-08-31T14:21:31;7.40;;;1.87;;
75823;SDS011;64457;51.976;9.834;2023-08-31T14:24:00;6.27;;;1.77;;
75823;SDS011;64457;51.976;9.834;2023-08-31T14:26:29;6.67;;;1.90;;
75823;SDS011;64457;51.976;9.834;2023-08-31T14:28:59;6.63;;;1.80;;
75823;SDS011;64457;51.976;9.834;2023-08-31T14:31:27;5.47;;;1.77;;
75823;SDS011;64457;51.976;9.834;2023-08-31T14:33:55;6.40;;;1.77;;
75823;SDS011;64457;51.976;9.834;2023-08-31T14:36:25;4.87;;;1.40;;
75823;SDS011;64457;51.976;9.834;2023-08-31T14:38:53;6.43;;;1.43;;
75823;SDS011;64457;51.976;9.834;2023-08-31T14:41:20;6.80;;;1.77;;
75823;SDS011;64457;51.976;9.834;2023-08-31T14:43:48;5.23;;;1.70;;
75823;SDS011;64457;51.976;9.834;2023-08-31T14:46:18;6.43;;;1.60;;